Terminal Aerodrome Forecast
Issued by NWS Tiyan, Guam

Home | Current Version | Previous Version | Text Only | Print | Product List | Glossary On
Versions: 1 2 3 4 5 6 7 8 9 10 11 12 13 14 15 16 17 18 19
000
FTPQ31 PGUM 202120 AAA
TAFGUM
TAF AMD
PGUM 202120Z 2021/2124 01006KT P6SM FEW020
     FM210200 36011KT P6SM VCSH SCT020
     FM212000 35013KT P6SM VCSH SCT020 BKN120=

USA.gov is the U.S. government's official web portal to all federal, state and local government web resources and services.